createdAt,value
2022-09-22T00:02:21.927Z,1.33
2022-09-22T00:04:50.475Z,1.20
2022-09-22T00:07:20.256Z,1.10
2022-09-22T00:09:48.856Z,1.20
2022-09-22T00:12:17.326Z,1.10
2022-09-22T00:14:45.969Z,1.30
2022-09-22T00:17:14.538Z,1.10
2022-09-22T00:19:42.974Z,1.02
2022-09-22T00:22:11.226Z,1.20
2022-09-22T00:24:43.009Z,1.30
2022-09-22T00:27:11.531Z,1.30
2022-09-22T00:29:39.899Z,1.20
2022-09-22T00:32:09.071Z,1.20
2022-09-22T00:34:37.367Z,1.10
2022-09-22T00:37:05.734Z,1.10
2022-09-22T00:39:34.014Z,1.10
2022-09-22T00:42:04.399Z,1.27
2022-09-22T00:44:39.379Z,1.10
2022-09-22T00:47:16.834Z,1.10
2022-09-22T00:49:50.466Z,1.10
2022-09-22T00:52:23.993Z,1.20
2022-09-22T00:54:55.574Z,1.50
2022-09-22T00:57:31.121Z,1.13
2022-09-22T01:00:00.015Z,1.08
2022-09-22T01:02:28.328Z,1.10
2022-09-22T01:04:56.639Z,1.17
2022-09-22T01:07:27.687Z,1.00
2022-09-22T01:09:56.689Z,1.00
2022-09-22T01:12:27.721Z,1.13
2022-09-22T01:15:21.597Z,1.20
2022-09-22T01:18:02.805Z,1.00
2022-09-22T01:21:07.857Z,1.20
2022-09-22T01:24:17.462Z,1.30
2022-09-22T01:27:12.757Z,1.10
2022-09-22T01:30:08.798Z,1.08
2022-09-22T01:32:43.833Z,1.23
2022-09-22T01:35:20.727Z,1.20
2022-09-22T01:37:59.176Z,1.15
2022-09-22T01:40:35.458Z,1.20
2022-09-22T01:43:13.198Z,1.30
2022-09-22T01:45:48.361Z,1.30
2022-09-22T01:48:21.063Z,1.30
2022-09-22T01:50:53.863Z,1.20
2022-09-22T01:53:25.762Z,1.50
2022-09-22T01:55:59.778Z,1.33
2022-09-22T01:58:33.300Z,1.40
2022-09-22T02:01:12.265Z,1.30
2022-09-22T02:03:46.918Z,1.50
2022-09-22T02:06:20.857Z,1.20
2022-09-22T02:08:54.161Z,1.10
2022-09-22T02:11:22.745Z,1.23
2022-09-22T02:13:51.208Z,1.38
2022-09-22T02:16:24.806Z,1.50
2022-09-22T02:18:57.408Z,1.40
2022-09-22T02:21:31.078Z,1.50
2022-09-22T02:24:00.939Z,1.40
2022-09-22T02:26:32.788Z,1.30
2022-09-22T02:29:03.961Z,1.30
2022-09-22T02:31:37.681Z,1.33
2022-09-22T02:34:07.390Z,1.50
2022-09-22T02:36:47.661Z,1.40
2022-09-22T02:39:23.206Z,1.30
2022-09-22T02:42:11.731Z,1.42
2022-09-22T02:44:47.995Z,1.48
2022-09-22T02:47:23.297Z,1.27
2022-09-22T02:49:53.756Z,1.30
2022-09-22T02:52:25.363Z,1.40
2022-09-22T02:54:55.262Z,1.40
2022-09-22T02:57:24.085Z,1.30
2022-09-22T02:59:52.374Z,1.63
2022-09-22T03:02:21.998Z,1.25
2022-09-22T03:04:51.521Z,1.17
2022-09-22T03:07:20.071Z,1.50
2022-09-22T03:09:48.297Z,1.20
2022-09-22T03:12:16.602Z,1.50
2022-09-22T03:14:44.933Z,1.27
2022-09-22T03:17:13.232Z,1.30
2022-09-22T03:19:42.885Z,1.30
2022-09-22T03:22:11.137Z,1.23
2022-09-22T03:24:39.586Z,1.25
2022-09-22T03:27:07.898Z,1.30
2022-09-22T03:29:36.150Z,1.50
2022-09-22T03:32:04.588Z,1.30
2022-09-22T03:34:32.838Z,1.20
2022-09-22T03:37:02.536Z,1.23
2022-09-22T03:39:30.836Z,1.20
2022-09-22T03:41:59.115Z,1.27
2022-09-22T03:44:27.551Z,1.27
2022-09-22T03:46:55.816Z,1.20
2022-09-22T03:49:24.932Z,1.20
2022-09-22T03:51:53.863Z,1.50
2022-09-22T03:54:23.519Z,1.20
2022-09-22T03:56:52.035Z,1.15
2022-09-22T03:59:20.298Z,1.40
2022-09-22T04:01:48.686Z,1.30
2022-09-22T04:04:17.116Z,1.23
2022-09-22T04:06:45.386Z,1.20
2022-09-22T04:09:17.504Z,1.20
2022-09-22T04:11:47.263Z,1.20
2022-09-22T04:14:15.537Z,1.25
2022-09-22T04:16:43.871Z,1.30
2022-09-22T04:19:12.288Z,1.13
2022-09-22T04:21:41.026Z,1.20
2022-09-22T04:24:11.462Z,1.10
2022-09-22T04:26:47.791Z,1.40
2022-09-22T04:29:29.873Z,1.42
2022-09-22T04:31:58.100Z,1.13
2022-09-22T04:34:26.355Z,1.30
2022-09-22T04:36:54.605Z,1.17
2022-09-22T04:39:23.935Z,1.10
2022-09-22T04:41:52.459Z,1.40
2022-09-22T04:44:20.732Z,1.25
2022-09-22T04:46:50.886Z,1.30
2022-09-22T04:49:19.667Z,1.20
2022-09-22T04:51:48.281Z,1.27
2022-09-22T04:54:16.618Z,1.20
2022-09-22T04:56:45.328Z,1.30
2022-09-22T04:59:13.587Z,1.10
2022-09-22T05:01:41.945Z,1.15
2022-09-22T05:04:11.673Z,1.20
2022-09-22T05:06:41.674Z,1.20
2022-09-22T05:09:10.247Z,1.30
2022-09-22T05:11:39.480Z,1.20
2022-09-22T05:14:07.742Z,1.40
2022-09-22T05:16:36.107Z,1.40
2022-09-22T05:19:04.452Z,1.45
2022-09-22T05:21:35.708Z,1.50
2022-09-22T05:24:04.685Z,1.35
2022-09-22T05:26:32.952Z,1.17
2022-09-22T05:29:01.226Z,1.25
2022-09-22T05:31:29.517Z,1.45
2022-09-22T05:33:57.822Z,1.35
2022-09-22T05:36:26.175Z,1.50
2022-09-22T05:38:55.784Z,1.33
2022-09-22T05:41:25.561Z,1.30
2022-09-22T05:43:54.050Z,1.30
2022-09-22T05:46:22.321Z,1.30
2022-09-22T05:48:50.607Z,1.58
2022-09-22T05:51:18.891Z,1.60
2022-09-22T05:53:47.179Z,1.30
2022-09-22T05:56:16.829Z,1.20
2022-09-22T05:58:45.144Z,1.45
2022-09-22T06:01:13.480Z,1.40
2022-09-22T06:03:41.855Z,1.30
2022-09-22T06:06:10.166Z,1.40
2022-09-22T06:08:38.423Z,1.58
2022-09-22T06:11:06.914Z,1.33
2022-09-22T06:13:36.650Z,1.33
2022-09-22T06:16:05.260Z,1.25
2022-09-22T06:18:33.577Z,1.30
2022-09-22T06:21:01.869Z,1.50
2022-09-22T06:23:31.921Z,1.23
2022-09-22T06:26:00.373Z,1.33
2022-09-22T06:28:28.684Z,1.23
2022-09-22T06:31:01.565Z,1.38
2022-09-22T06:33:30.440Z,1.20
2022-09-22T06:36:00.934Z,1.50
2022-09-22T06:38:31.857Z,1.65
2022-09-22T06:41:03.001Z,1.40
2022-09-22T06:43:32.911Z,1.30
2022-09-22T06:46:02.730Z,1.40
2022-09-22T06:48:31.995Z,1.40
2022-09-22T06:51:00.270Z,1.35
2022-09-22T06:53:28.583Z,1.60
2022-09-22T06:55:59.060Z,1.40
2022-09-22T06:58:28.951Z,1.70
2022-09-22T07:01:09.647Z,1.58
2022-09-22T07:03:41.608Z,1.30
2022-09-22T07:06:10.948Z,1.50
2022-09-22T07:08:39.449Z,1.27
2022-09-22T07:11:09.331Z,1.50
2022-09-22T07:13:39.869Z,1.60
2022-09-22T07:16:10.386Z,1.40
2022-09-22T07:18:43.797Z,1.80
2022-09-22T07:21:14.272Z,1.63
2022-09-22T07:23:44.176Z,1.70
2022-09-22T07:26:14.582Z,1.40
2022-09-22T07:28:43.474Z,1.90
2022-09-22T07:31:13.683Z,1.50
2022-09-22T07:33:44.761Z,1.75
2022-09-22T07:36:14.732Z,1.73
2022-09-22T07:38:44.535Z,1.40
2022-09-22T07:41:14.595Z,1.67
2022-09-22T07:43:43.546Z,1.90
2022-09-22T07:46:13.194Z,1.40
2022-09-22T07:48:47.800Z,1.80
2022-09-22T07:51:19.127Z,1.83
2022-09-22T07:53:49.202Z,2.17
2022-09-22T07:56:21.154Z,1.73
2022-09-22T07:58:51.085Z,1.52
2022-09-22T08:01:21.559Z,1.77
2022-09-22T08:03:52.114Z,1.92
2022-09-22T08:06:23.793Z,1.90
2022-09-22T08:08:56.301Z,2.05
2022-09-22T08:11:26.539Z,1.70
2022-09-22T08:13:57.119Z,1.67
2022-09-22T08:16:28.301Z,1.90
2022-09-22T08:18:59.621Z,1.70
2022-09-22T08:21:35.591Z,1.65
2022-09-22T08:24:05.040Z,1.67
2022-09-22T08:26:36.640Z,1.30
2022-09-22T08:29:06.689Z,1.35
2022-09-22T08:31:36.864Z,1.50
2022-09-22T08:34:06.718Z,1.30
2022-09-22T08:36:35.053Z,1.30
2022-09-22T08:39:04.421Z,1.48
2022-09-22T08:41:41.295Z,1.38
2022-09-22T08:44:22.843Z,1.38
2022-09-22T08:46:51.776Z,1.17
2022-09-22T08:49:44.181Z,1.27
2022-09-22T08:52:18.229Z,1.20
2022-09-22T08:54:46.799Z,1.20
2022-09-22T08:57:35.647Z,1.70
2022-09-22T09:00:07.286Z,1.30
2022-09-22T09:02:41.160Z,1.25
2022-09-22T09:05:44.881Z,1.30
2022-09-22T09:08:46.419Z,1.20
2022-09-22T09:11:26.991Z,1.20
2022-09-22T09:14:11.867Z,1.10
2022-09-22T09:16:48.091Z,1.20
2022-09-22T09:19:20.257Z,1.30
2022-09-22T09:21:55.094Z,1.45
2022-09-22T09:27:24.113Z,1.30
2022-09-22T09:30:01.339Z,1.33
2022-09-22T09:32:38.582Z,1.20
2022-09-22T09:35:12.870Z,1.30
2022-09-22T09:37:42.275Z,1.30
2022-09-22T09:40:15.778Z,1.40
2022-09-22T09:42:45.458Z,1.25
2022-09-22T09:45:15.614Z,1.20
2022-09-22T09:48:00.079Z,1.27
2022-09-22T09:50:32.354Z,1.50
2022-09-22T09:53:01.069Z,1.30
2022-09-22T09:55:31.674Z,1.20
2022-09-22T09:58:05.075Z,1.30
2022-09-22T10:00:34.365Z,1.15
2022-09-22T10:03:14.354Z,1.30
2022-09-22T10:05:43.431Z,1.27
2022-09-22T10:08:19.999Z,1.02
2022-09-22T10:10:50.053Z,1.20
2022-09-22T10:13:33.310Z,1.00
2022-09-22T10:16:23.040Z,0.98
2022-09-22T10:18:52.816Z,1.30
2022-09-22T10:21:22.814Z,1.13
2022-09-22T10:23:52.094Z,1.10
2022-09-22T10:26:26.243Z,1.25
2022-09-22T10:29:18.193Z,1.20
2022-09-22T10:32:05.266Z,1.17
2022-09-22T10:34:36.383Z,1.20
2022-09-22T10:37:10.639Z,1.10
2022-09-22T10:39:45.613Z,1.20
2022-09-22T10:42:28.617Z,1.00
2022-09-22T10:45:01.929Z,1.00
2022-09-22T10:47:51.791Z,0.98
2022-09-22T10:50:38.254Z,1.20
2022-09-22T10:53:27.370Z,1.10
2022-09-22T10:56:05.489Z,0.93
2022-09-22T10:58:53.725Z,1.20
2022-09-22T11:01:39.567Z,1.17
2022-09-22T11:04:24.936Z,1.20
2022-09-22T11:07:30.507Z,1.13
2022-09-22T11:10:27.159Z,1.15
2022-09-22T11:13:05.361Z,1.17
2022-09-22T11:15:45.750Z,1.00
2022-09-22T11:18:31.041Z,1.00
2022-09-22T11:21:09.865Z,1.00
2022-09-22T11:24:02.518Z,1.10
2022-09-22T11:26:48.212Z,1.00
2022-09-22T11:29:47.362Z,1.00
2022-09-22T11:32:34.102Z,1.10
2022-09-22T11:35:25.304Z,1.00
2022-09-22T11:38:09.376Z,1.30
2022-09-22T11:41:01.001Z,1.05
2022-09-22T11:43:41.350Z,1.00
2022-09-22T11:46:15.357Z,1.02
2022-09-22T11:48:58.949Z,1.00
2022-09-22T11:51:42.663Z,0.90
2022-09-22T11:54:27.293Z,1.10
2022-09-22T11:57:00.041Z,1.00
2022-09-22T11:59:39.441Z,1.00
2022-09-22T12:02:17.221Z,1.10
2022-09-22T12:04:53.685Z,1.33
2022-09-22T12:07:29.361Z,1.10
2022-09-22T12:10:01.879Z,1.02
2022-09-22T12:12:32.524Z,1.20
2022-09-22T12:15:08.418Z,1.20
2022-09-22T12:17:41.971Z,1.00
2022-09-22T12:20:27.406Z,1.10
2022-09-22T12:23:15.423Z,1.10
2022-09-22T12:25:49.105Z,1.20
2022-09-22T12:28:25.692Z,0.90
2022-09-22T12:31:04.908Z,1.02
2022-09-22T12:33:37.014Z,1.02
2022-09-22T12:36:07.814Z,1.00
2022-09-22T12:38:36.153Z,1.00
2022-09-22T12:41:05.457Z,1.10
2022-09-22T12:43:35.865Z,1.17
2022-09-22T12:46:13.075Z,1.00
2022-09-22T12:48:46.307Z,1.05
2022-09-22T12:51:34.731Z,1.10
2022-09-22T12:54:38.630Z,1.10
2022-09-22T12:57:29.509Z,1.00
2022-09-22T13:00:22.871Z,1.20
2022-09-22T13:02:51.488Z,1.10
2022-09-22T13:05:36.073Z,1.02
2022-09-22T13:08:05.748Z,1.02
2022-09-22T13:10:52.516Z,1.02
2022-09-22T13:13:42.358Z,1.05
2022-09-22T13:16:34.724Z,1.02
2022-09-22T13:19:03.991Z,1.13
2022-09-22T13:21:34.455Z,1.00
2022-09-22T13:24:07.306Z,1.10
2022-09-22T13:26:37.944Z,1.20
2022-09-22T13:29:13.738Z,1.10
2022-09-22T13:31:44.389Z,0.90
2022-09-22T13:34:26.634Z,1.00
2022-09-22T13:37:00.261Z,1.00
2022-09-22T13:39:34.989Z,0.90
2022-09-22T13:42:07.293Z,1.00
2022-09-22T13:44:39.869Z,1.00
2022-09-22T13:47:17.064Z,1.10
2022-09-22T13:49:49.555Z,1.00
2022-09-22T13:52:22.490Z,0.90
2022-09-22T13:54:56.908Z,0.93
2022-09-22T13:57:28.982Z,1.00
2022-09-22T13:59:58.594Z,0.98
2022-09-22T14:02:31.929Z,1.05
2022-09-22T14:05:03.750Z,1.00
2022-09-22T14:07:38.345Z,1.10
2022-09-22T14:10:19.315Z,1.20
2022-09-22T14:12:48.180Z,1.10
2022-09-22T14:15:40.145Z,1.00
2022-09-22T14:18:18.826Z,1.10
2022-09-22T14:20:48.357Z,1.10
2022-09-22T14:23:22.066Z,1.00
2022-09-22T14:25:51.699Z,0.90
2022-09-22T14:28:24.891Z,1.00
2022-09-22T14:30:53.762Z,0.90
2022-09-22T14:33:25.716Z,1.00
2022-09-22T14:36:01.331Z,0.90
2022-09-22T14:38:34.266Z,1.00
2022-09-22T14:41:04.240Z,0.90
2022-09-22T14:43:42.165Z,1.00
2022-09-22T14:46:23.919Z,1.00
2022-09-22T14:48:52.304Z,1.10
2022-09-22T14:51:23.535Z,1.00
2022-09-22T14:53:55.348Z,0.90
2022-09-22T14:56:28.834Z,0.93
2022-09-22T14:59:02.412Z,1.30
2022-09-22T15:01:50.801Z,0.90
2022-09-22T15:04:23.275Z,1.00
2022-09-22T15:06:56.193Z,1.10
2022-09-22T15:09:27.536Z,0.90
2022-09-22T15:12:00.327Z,0.90
2022-09-22T15:14:44.133Z,1.00
2022-09-22T15:17:52.891Z,1.10
2022-09-22T15:20:21.283Z,1.00
2022-09-22T15:22:49.983Z,0.80
2022-09-22T15:25:18.494Z,0.90
2022-09-22T15:27:51.566Z,0.90
2022-09-22T15:30:20.743Z,0.90
2022-09-22T15:32:49.564Z,0.90
2022-09-22T15:35:20.474Z,0.90
2022-09-22T15:37:50.593Z,0.98
2022-09-22T15:40:21.499Z,1.17
2022-09-22T15:43:11.641Z,0.90
2022-09-22T15:45:47.529Z,0.98
2022-09-22T15:48:23.790Z,0.93
2022-09-22T15:50:52.359Z,0.90
2022-09-22T15:53:20.668Z,0.98
2022-09-22T15:55:48.953Z,0.98
2022-09-22T15:58:22.800Z,0.80
2022-09-22T16:00:51.656Z,0.95
2022-09-22T16:03:23.792Z,0.85
2022-09-22T16:05:57.017Z,0.90
2022-09-22T16:08:29.542Z,0.80
2022-09-22T16:10:58.313Z,1.00
2022-09-22T16:13:28.079Z,1.00
2022-09-22T16:15:56.558Z,1.13
2022-09-22T16:18:25.400Z,1.00
2022-09-22T16:21:02.998Z,0.90
2022-09-22T16:23:31.418Z,1.00
2022-09-22T16:25:59.840Z,1.00
2022-09-22T16:28:29.474Z,0.90
2022-09-22T16:31:02.850Z,0.90
2022-09-22T16:33:31.234Z,1.00
2022-09-22T16:35:59.631Z,0.90
2022-09-22T16:38:29.086Z,0.90
2022-09-22T16:41:05.299Z,1.08
2022-09-22T16:43:35.206Z,0.93
2022-09-22T16:46:20.901Z,0.90
2022-09-22T16:48:50.992Z,0.80
2022-09-22T16:51:19.377Z,0.90
2022-09-22T16:53:52.707Z,1.00
2022-09-22T16:56:21.967Z,1.15
2022-09-22T16:58:52.063Z,1.00
2022-09-22T17:01:20.961Z,1.00
2022-09-22T17:03:50.625Z,0.88
2022-09-22T17:06:23.053Z,1.00
2022-09-22T17:08:52.885Z,1.00
2022-09-22T17:11:29.600Z,1.00
2022-09-22T17:14:01.370Z,0.90
2022-09-22T17:16:30.919Z,1.10
2022-09-22T17:19:02.453Z,1.00
2022-09-22T17:21:34.443Z,1.10
2022-09-22T17:24:04.399Z,1.10
2022-09-22T17:26:35.456Z,1.10
2022-09-22T17:29:06.057Z,1.40
2022-09-22T17:31:35.939Z,1.40
2022-09-22T17:34:04.489Z,1.40
2022-09-22T17:36:33.582Z,1.27
2022-09-22T17:39:02.269Z,1.10
2022-09-22T17:41:32.858Z,1.27
2022-09-22T17:44:03.275Z,1.20
2022-09-22T17:46:35.116Z,1.40
2022-09-22T17:49:20.824Z,1.20
2022-09-22T17:52:08.048Z,1.40
2022-09-22T17:54:55.682Z,1.20
2022-09-22T17:57:25.917Z,1.35
2022-09-22T17:59:56.308Z,1.30
2022-09-22T18:02:28.066Z,1.30
2022-09-22T18:04:56.902Z,1.20
2022-09-22T18:07:26.866Z,1.30
2022-09-22T18:09:55.897Z,1.27
2022-09-22T18:12:25.985Z,1.27
2022-09-22T18:14:55.897Z,1.40
2022-09-22T18:17:29.066Z,1.60
2022-09-22T18:19:58.482Z,1.40
2022-09-22T18:22:29.695Z,1.38
2022-09-22T18:24:58.026Z,1.60
2022-09-22T18:27:27.918Z,1.40
2022-09-22T18:29:58.624Z,1.75
2022-09-22T18:32:30.393Z,1.80
2022-09-22T18:34:58.654Z,1.83
2022-09-22T18:37:27.261Z,2.10
2022-09-22T18:39:55.770Z,2.10
2022-09-22T18:42:27.450Z,2.00
2022-09-22T18:44:55.763Z,2.78
2022-09-22T18:47:24.141Z,2.72
2022-09-22T18:49:53.891Z,2.30
2022-09-22T18:52:24.250Z,2.05
2022-09-22T18:54:54.452Z,2.10
2022-09-22T18:57:25.424Z,3.10
2022-09-22T18:59:57.414Z,5.03
2022-09-22T19:02:25.815Z,6.15
2022-09-22T19:04:55.646Z,6.82
2022-09-22T19:07:42.492Z,7.68
2022-09-22T19:10:13.078Z,9.13
2022-09-22T19:12:42.448Z,8.23
2022-09-22T19:15:16.451Z,7.32
2022-09-22T19:17:46.418Z,6.55
2022-09-22T19:20:18.627Z,6.63
2022-09-22T19:22:49.227Z,6.63
2022-09-22T19:25:18.765Z,6.38
2022-09-22T19:27:47.253Z,5.57
2022-09-22T19:30:17.723Z,5.15
2022-09-22T19:32:49.344Z,4.78
2022-09-22T19:35:19.469Z,4.20
2022-09-22T19:37:47.927Z,3.85
2022-09-22T19:40:18.767Z,3.88
2022-09-22T19:42:48.630Z,3.80
2022-09-22T19:45:17.047Z,3.35
2022-09-22T19:47:46.012Z,3.00
2022-09-22T19:50:14.955Z,2.88
2022-09-22T19:52:44.768Z,2.70
2022-09-22T19:55:13.120Z,2.78
2022-09-22T19:57:42.052Z,2.80
2022-09-22T20:00:17.058Z,2.67
2022-09-22T20:02:45.837Z,3.38
2022-09-22T20:05:22.080Z,3.47
2022-09-22T20:07:51.973Z,3.85
2022-09-22T20:10:22.487Z,3.83
2022-09-22T20:12:51.520Z,3.17
2022-09-22T20:15:20.554Z,3.28
2022-09-22T20:17:49.162Z,3.20
2022-09-22T20:20:19.642Z,3.00
2022-09-22T20:22:50.353Z,2.72
2022-09-22T20:25:23.672Z,3.10
2022-09-22T20:27:51.959Z,3.70
2022-09-22T20:30:20.358Z,4.05
2022-09-22T20:32:50.306Z,3.65
2022-09-22T20:35:21.663Z,3.00
2022-09-22T20:37:51.420Z,2.80
2022-09-22T20:40:23.116Z,2.47
2022-09-22T20:42:54.109Z,2.63
2022-09-22T20:45:24.611Z,2.40
2022-09-22T20:47:53.147Z,2.35
2022-09-22T20:50:22.175Z,1.90
2022-09-22T20:52:50.750Z,2.08
2022-09-22T20:55:19.360Z,2.20
2022-09-22T20:57:49.388Z,2.00
2022-09-22T21:00:17.879Z,1.90
2022-09-22T21:02:47.271Z,1.83
2022-09-22T21:05:15.806Z,1.90
2022-09-22T21:07:44.085Z,1.80
2022-09-22T21:10:30.070Z,1.63
2022-09-22T21:13:00.438Z,1.73
2022-09-22T21:15:29.897Z,2.00
2022-09-22T21:17:58.396Z,1.80
2022-09-22T21:20:27.030Z,2.03
2022-09-22T21:22:55.718Z,1.90
2022-09-22T21:25:24.976Z,1.90
2022-09-22T21:27:53.274Z,1.75
2022-09-22T21:30:22.948Z,2.10
2022-09-22T21:32:51.301Z,1.60
2022-09-22T21:35:19.584Z,2.00
2022-09-22T21:37:47.875Z,1.83
2022-09-22T21:40:17.466Z,1.73
2022-09-22T21:42:45.790Z,1.88
2022-09-22T21:45:14.097Z,1.98
2022-09-22T21:47:44.283Z,1.88
2022-09-22T21:50:12.791Z,1.80
2022-09-22T21:52:41.074Z,1.58
2022-09-22T21:55:09.943Z,1.70
2022-09-22T21:57:38.203Z,1.73
2022-09-22T22:00:08.422Z,1.85
2022-09-22T22:02:54.072Z,1.55
2022-09-22T22:05:23.723Z,1.58
2022-09-22T22:07:51.984Z,1.67
2022-09-22T22:10:20.314Z,1.80
2022-09-22T22:12:48.617Z,1.90
2022-09-22T22:15:17.044Z,1.88
2022-09-22T22:17:45.312Z,1.70
2022-09-22T22:20:13.598Z,1.70
2022-09-22T22:22:43.258Z,1.83
2022-09-22T22:25:17.255Z,1.70
2022-09-22T22:27:45.869Z,1.77
2022-09-22T22:30:14.336Z,1.80
2022-09-22T22:32:43.027Z,1.70
2022-09-22T22:35:11.594Z,1.75
2022-09-22T22:37:39.954Z,1.90
2022-09-22T22:40:10.422Z,1.85
2022-09-22T22:42:38.756Z,2.20
2022-09-22T22:45:07.485Z,1.67
2022-09-22T22:47:35.731Z,1.65
2022-09-22T22:50:04.105Z,1.50
2022-09-22T22:52:32.384Z,1.67
2022-09-22T22:55:00.624Z,1.63
2022-09-22T22:57:30.287Z,1.70
2022-09-22T22:59:58.552Z,1.60
2022-09-22T23:02:26.946Z,1.60
2022-09-22T23:04:58.572Z,1.70
2022-09-22T23:07:27.526Z,1.52
2022-09-22T23:10:06.196Z,1.40
2022-09-22T23:12:39.340Z,1.60
2022-09-22T23:15:09.523Z,1.60
2022-09-22T23:17:37.965Z,1.40
2022-09-22T23:20:08.076Z,1.52
2022-09-22T23:22:36.413Z,1.67
2022-09-22T23:25:05.281Z,1.30
2022-09-22T23:27:33.542Z,1.65
2022-09-22T23:30:03.206Z,1.40
2022-09-22T23:32:31.473Z,1.60
2022-09-22T23:34:59.764Z,1.45
2022-09-22T23:37:28.082Z,1.75
2022-09-22T23:39:56.340Z,1.50
2022-09-22T23:42:24.778Z,1.50
2022-09-22T23:44:53.054Z,1.52
2022-09-22T23:47:22.649Z,1.33
2022-09-22T23:49:50.908Z,1.38
2022-09-22T23:52:19.148Z,1.50
2022-09-22T23:54:47.428Z,1.33
2022-09-22T23:57:15.719Z,1.50
2022-09-22T23:59:44.046Z,1.60
